createdAt,value
2022-12-11T00:01:13.536Z,4.60
2022-12-11T00:03:42.151Z,4.60
2022-12-11T00:06:14.879Z,4.60
2022-12-11T00:08:43.282Z,4.60
2022-12-11T00:11:13.931Z,4.60
2022-12-11T00:13:42.202Z,4.60
2022-12-11T00:16:11.160Z,4.60
2022-12-11T00:18:39.919Z,4.60
2022-12-11T00:21:10.406Z,4.60
2022-12-11T00:23:40.140Z,4.60
2022-12-11T00:26:10.438Z,4.70
2022-12-11T00:28:38.741Z,4.70
2022-12-11T00:31:07.831Z,4.70
2022-12-11T00:33:36.167Z,4.70
2022-12-11T00:36:05.073Z,4.70
2022-12-11T00:38:33.354Z,4.70
2022-12-11T00:41:03.001Z,4.70
2022-12-11T00:43:31.286Z,4.70
2022-12-11T00:45:59.567Z,4.70
2022-12-11T00:48:27.985Z,4.70
2022-12-11T00:50:56.298Z,4.70
2022-12-11T00:53:24.645Z,4.70
2022-12-11T00:55:52.915Z,4.70
2022-12-11T00:58:22.654Z,4.70
2022-12-11T01:00:53.426Z,4.70
2022-12-11T01:03:21.937Z,4.70
2022-12-11T01:05:54.128Z,4.70
2022-12-11T01:08:22.485Z,4.70
2022-12-11T01:10:49.881Z,4.70
2022-12-11T01:13:18.375Z,5.10
2022-12-11T01:15:48.129Z,4.70
2022-12-11T01:18:16.800Z,4.70
2022-12-11T01:20:45.138Z,4.80
2022-12-11T01:23:14.692Z,4.80
2022-12-11T01:25:43.771Z,4.80
2022-12-11T01:28:12.524Z,4.80
2022-12-11T01:30:42.674Z,4.80
2022-12-11T01:33:12.305Z,4.80
2022-12-11T01:35:41.232Z,4.80
2022-12-11T01:38:10.859Z,4.80
2022-12-11T01:40:39.385Z,4.80
2022-12-11T01:43:10.737Z,4.80
2022-12-11T01:45:45.075Z,4.90
2022-12-11T01:48:18.880Z,4.80
2022-12-11T01:50:50.622Z,4.80
2022-12-11T01:53:23.681Z,4.80
2022-12-11T01:55:54.484Z,4.80
2022-12-11T01:58:24.859Z,4.90
2022-12-11T02:00:55.019Z,4.80
2022-12-11T02:03:24.830Z,4.90
2022-12-11T02:05:53.293Z,4.90
2022-12-11T02:08:22.496Z,4.90
2022-12-11T02:11:01.519Z,4.90
2022-12-11T02:13:36.170Z,4.90
2022-12-11T02:16:12.532Z,4.90
2022-12-11T02:18:49.819Z,4.90
2022-12-11T02:21:22.218Z,4.90
2022-12-11T02:24:15.941Z,4.90
2022-12-11T02:27:01.365Z,4.90
2022-12-11T02:29:37.197Z,4.90
2022-12-11T02:32:11.989Z,4.90
2022-12-11T02:34:44.377Z,4.90
2022-12-11T02:37:16.219Z,4.90
2022-12-11T02:39:46.511Z,4.90
2022-12-11T02:42:16.357Z,4.90
2022-12-11T02:44:48.256Z,4.90
2022-12-11T02:47:18.511Z,4.90
2022-12-11T02:49:50.621Z,4.90
2022-12-11T02:52:22.945Z,4.90
2022-12-11T02:54:53.340Z,4.90
2022-12-11T02:57:29.289Z,4.90
2022-12-11T02:59:58.980Z,4.90
2022-12-11T03:02:27.347Z,4.90
2022-12-11T03:04:57.774Z,4.90
2022-12-11T03:07:28.358Z,4.90
2022-12-11T03:09:56.541Z,4.90
2022-12-11T03:12:28.691Z,4.80
2022-12-11T03:15:00.757Z,4.90
2022-12-11T03:17:33.667Z,4.90
2022-12-11T03:20:07.232Z,4.90
2022-12-11T03:22:40.188Z,4.90
2022-12-11T03:25:12.067Z,4.90
2022-12-11T03:27:49.237Z,4.90
2022-12-11T03:30:20.959Z,4.90
2022-12-11T03:32:52.822Z,4.90
2022-12-11T03:35:27.146Z,4.90
2022-12-11T03:37:57.834Z,4.90
2022-12-11T03:40:28.917Z,4.90
2022-12-11T03:42:58.564Z,4.90
2022-12-11T03:45:30.692Z,4.90
2022-12-11T03:48:00.727Z,4.90
2022-12-11T03:50:31.691Z,4.90
2022-12-11T03:53:01.571Z,4.90
2022-12-11T03:55:31.628Z,4.90
2022-12-11T03:57:59.940Z,5.00
2022-12-11T04:00:30.077Z,4.90
2022-12-11T04:03:17.811Z,5.00
2022-12-11T04:05:48.797Z,5.00
2022-12-11T04:08:17.939Z,5.00
2022-12-11T04:10:46.214Z,5.00
2022-12-11T04:13:14.561Z,5.00
2022-12-11T04:15:43.270Z,4.90
2022-12-11T04:18:28.678Z,5.00
2022-12-11T04:21:15.284Z,5.00
2022-12-11T04:24:00.850Z,5.00
2022-12-11T04:26:29.353Z,5.00
2022-12-11T04:28:57.559Z,5.20
2022-12-11T04:31:27.100Z,5.00
2022-12-11T04:33:55.361Z,5.00
2022-12-11T04:36:23.570Z,5.00
2022-12-11T04:38:51.886Z,5.00
2022-12-11T04:41:20.342Z,5.00
2022-12-11T04:43:48.747Z,5.00
2022-12-11T04:46:19.259Z,5.00
2022-12-11T04:48:55.390Z,5.00
2022-12-11T04:51:25.618Z,5.00
2022-12-11T04:53:54.090Z,4.90
2022-12-11T04:56:22.825Z,5.00
2022-12-11T04:58:51.150Z,5.00
2022-12-11T05:01:22.634Z,5.00
2022-12-11T05:03:52.363Z,5.00
2022-12-11T05:06:20.540Z,5.30
2022-12-11T05:08:48.718Z,5.00
2022-12-11T05:11:17.488Z,5.00
2022-12-11T05:13:46.474Z,5.00
2022-12-11T05:16:16.464Z,5.00
2022-12-11T05:18:45.284Z,5.00
2022-12-11T05:21:16.370Z,5.00
2022-12-11T05:23:44.890Z,5.00
2022-12-11T05:26:17.064Z,5.00
2022-12-11T05:28:45.898Z,5.00
2022-12-11T05:31:16.471Z,5.00
2022-12-11T05:33:45.524Z,4.90
2022-12-11T05:36:18.454Z,5.00
2022-12-11T05:38:47.093Z,5.00
2022-12-11T05:41:17.862Z,5.00
2022-12-11T05:43:46.076Z,5.00
2022-12-11T05:46:15.868Z,5.00
2022-12-11T05:48:45.123Z,5.00
2022-12-11T05:51:16.604Z,5.00
2022-12-11T05:53:46.462Z,5.00
2022-12-11T05:56:16.778Z,5.00
2022-12-11T05:58:46.160Z,5.40
2022-12-11T06:01:16.733Z,5.00
2022-12-11T06:03:45.045Z,5.00
2022-12-11T06:06:15.566Z,5.00
2022-12-11T06:08:44.111Z,5.00
2022-12-11T06:11:18.392Z,5.00
2022-12-11T06:13:49.954Z,5.00
2022-12-11T06:16:18.237Z,5.00
2022-12-11T06:18:46.830Z,5.00
2022-12-11T06:21:18.785Z,5.10
2022-12-11T06:23:48.212Z,5.10
2022-12-11T06:26:17.786Z,5.10
2022-12-11T06:28:46.024Z,5.00
2022-12-11T06:31:15.681Z,5.00
2022-12-11T06:33:44.567Z,5.10
2022-12-11T06:36:15.594Z,5.10
2022-12-11T06:38:45.658Z,5.10
2022-12-11T06:41:14.544Z,5.10
2022-12-11T06:43:44.000Z,5.10
2022-12-11T06:46:14.453Z,5.10
2022-12-11T06:48:43.320Z,5.10
2022-12-11T06:51:13.456Z,5.00
2022-12-11T06:53:41.960Z,5.10
2022-12-11T06:56:14.440Z,5.10
2022-12-11T06:58:44.152Z,5.10
2022-12-11T07:01:17.983Z,5.10
2022-12-11T07:03:46.732Z,5.10
2022-12-11T07:06:15.595Z,5.10
2022-12-11T07:08:44.238Z,5.10
2022-12-11T07:11:15.628Z,5.10
2022-12-11T07:13:44.800Z,5.10
2022-12-11T07:16:14.614Z,5.10
2022-12-11T07:18:48.222Z,5.10
2022-12-11T07:21:16.584Z,5.10
2022-12-11T07:23:45.145Z,5.10
2022-12-11T07:26:17.030Z,5.20
2022-12-11T07:28:45.753Z,5.10
2022-12-11T07:31:16.146Z,5.10
2022-12-11T07:33:44.984Z,5.10
2022-12-11T07:36:15.188Z,5.10
2022-12-11T07:38:43.515Z,5.10
2022-12-11T07:41:14.912Z,5.10
2022-12-11T07:43:43.692Z,5.10
2022-12-11T07:46:13.596Z,5.10
2022-12-11T07:48:43.683Z,5.00
2022-12-11T07:51:12.978Z,5.10
2022-12-11T07:53:41.263Z,5.10
2022-12-11T07:56:10.866Z,5.10
2022-12-11T07:58:40.415Z,5.00
2022-12-11T08:01:13.587Z,5.00
2022-12-11T08:03:42.489Z,5.00
2022-12-11T08:06:11.299Z,5.00
2022-12-11T08:08:41.424Z,5.00
2022-12-11T08:11:11.597Z,5.00
2022-12-11T08:13:42.219Z,5.00
2022-12-11T08:16:13.175Z,5.00
2022-12-11T08:18:42.258Z,4.90
2022-12-11T08:21:12.409Z,4.90
2022-12-11T08:23:40.948Z,5.00
2022-12-11T08:26:12.051Z,5.00
2022-12-11T08:28:42.382Z,5.30
2022-12-11T08:31:13.728Z,5.00
2022-12-11T08:33:43.155Z,4.90
2022-12-11T08:36:16.402Z,4.90
2022-12-11T08:38:45.053Z,4.90
2022-12-11T08:41:15.236Z,4.90
2022-12-11T08:43:46.018Z,4.90
2022-12-11T08:46:15.114Z,5.00
2022-12-11T08:48:44.621Z,4.90
2022-12-11T08:51:15.363Z,4.90
2022-12-11T08:53:44.603Z,4.90
2022-12-11T08:56:16.212Z,4.90
2022-12-11T08:58:46.761Z,4.90
2022-12-11T09:01:18.030Z,4.90
2022-12-11T09:03:46.695Z,4.90
2022-12-11T09:06:17.424Z,4.90
2022-12-11T09:08:52.228Z,4.90
2022-12-11T09:11:24.289Z,4.90
2022-12-11T09:13:54.653Z,4.90
2022-12-11T09:16:25.939Z,5.10
2022-12-11T09:18:55.990Z,5.00
2022-12-11T09:21:26.698Z,4.90
2022-12-11T09:23:56.110Z,4.90
2022-12-11T09:26:25.171Z,4.90
2022-12-11T09:28:55.062Z,4.90
2022-12-11T09:31:25.153Z,4.90
2022-12-11T09:33:56.478Z,4.90
2022-12-11T09:36:25.208Z,4.90
2022-12-11T09:38:53.695Z,4.90
2022-12-11T09:41:36.145Z,4.90
2022-12-11T09:44:21.710Z,4.90
2022-12-11T09:46:51.787Z,4.90
2022-12-11T09:49:29.949Z,4.90
2022-12-11T09:52:07.148Z,4.90
2022-12-11T09:54:36.105Z,4.90
2022-12-11T09:57:14.863Z,4.90
2022-12-11T10:00:04.233Z,4.90
2022-12-11T10:02:46.907Z,4.90
2022-12-11T10:05:22.519Z,4.90
2022-12-11T10:07:55.545Z,4.90
2022-12-11T10:10:37.626Z,4.90
2022-12-11T10:13:14.705Z,4.90
2022-12-11T10:15:52.912Z,4.90
2022-12-11T10:18:24.410Z,4.90
2022-12-11T10:20:54.715Z,4.90
2022-12-11T10:23:28.646Z,4.90
2022-12-11T10:26:04.016Z,4.90
2022-12-11T10:28:32.544Z,5.00
2022-12-11T10:31:08.699Z,4.90
2022-12-11T10:33:48.786Z,4.90
2022-12-11T10:36:24.833Z,4.90
2022-12-11T10:38:53.856Z,4.90
2022-12-11T10:41:25.808Z,4.90
2022-12-11T10:43:55.765Z,4.90
2022-12-11T10:46:29.258Z,5.30
2022-12-11T10:48:59.514Z,4.90
2022-12-11T10:51:37.005Z,4.90
2022-12-11T10:54:10.647Z,4.90
2022-12-11T10:56:39.650Z,4.90
2022-12-11T10:59:17.660Z,4.90
2022-12-11T11:01:51.505Z,4.90
2022-12-11T11:04:26.210Z,4.90
2022-12-11T11:07:05.623Z,5.20
2022-12-11T11:09:37.672Z,4.90
2022-12-11T11:12:22.080Z,4.90
2022-12-11T11:15:02.486Z,4.90
2022-12-11T11:17:36.250Z,4.90
2022-12-11T11:20:15.221Z,4.90
2022-12-11T11:22:48.047Z,4.90
2022-12-11T11:25:21.724Z,4.90
2022-12-11T11:27:53.413Z,4.90
2022-12-11T11:30:24.642Z,4.90
2022-12-11T11:32:56.774Z,4.90
2022-12-11T11:35:27.327Z,4.90
2022-12-11T11:38:02.302Z,4.90
2022-12-11T11:40:32.605Z,4.90
2022-12-11T11:43:14.005Z,4.90
2022-12-11T11:45:49.208Z,5.00
2022-12-11T11:48:35.593Z,5.00
2022-12-11T11:51:19.043Z,5.20
2022-12-11T11:53:52.709Z,4.90
2022-12-11T11:56:37.082Z,4.90
2022-12-11T11:59:14.142Z,4.90
2022-12-11T12:01:43.175Z,4.90
2022-12-11T12:04:13.610Z,4.90
2022-12-11T12:07:08.073Z,4.90
2022-12-11T12:09:48.236Z,4.90
2022-12-11T12:12:28.570Z,4.90
2022-12-11T12:15:20.375Z,4.90
2022-12-11T12:17:55.963Z,4.90
2022-12-11T12:20:38.551Z,4.90
2022-12-11T12:23:24.229Z,4.90
2022-12-11T12:25:59.043Z,4.90
2022-12-11T12:28:36.942Z,4.90
2022-12-11T12:31:25.134Z,4.90
2022-12-11T12:34:04.251Z,5.00
2022-12-11T12:36:40.508Z,5.00
2022-12-11T12:39:21.086Z,5.00
2022-12-11T12:42:03.971Z,5.00
2022-12-11T12:44:41.069Z,5.00
2022-12-11T12:47:12.586Z,5.00
2022-12-11T12:49:42.969Z,5.10
2022-12-11T12:52:19.053Z,5.10
2022-12-11T12:55:03.686Z,5.10
2022-12-11T12:57:33.053Z,5.10
2022-12-11T13:00:01.498Z,5.10
2022-12-11T13:02:31.328Z,5.10
2022-12-11T13:05:01.848Z,5.20
2022-12-11T13:07:33.147Z,5.10
2022-12-11T13:10:08.247Z,5.10
2022-12-11T13:12:44.014Z,5.20
2022-12-11T13:15:36.190Z,5.20
2022-12-11T13:18:08.500Z,5.20
2022-12-11T13:20:51.035Z,5.20
2022-12-11T13:23:29.496Z,5.20
2022-12-11T13:25:59.548Z,5.20
2022-12-11T13:28:33.849Z,5.20
2022-12-11T13:31:40.774Z,5.20
2022-12-11T13:34:17.228Z,5.20
2022-12-11T13:36:50.973Z,5.30
2022-12-11T13:39:23.745Z,5.20
2022-12-11T13:41:55.890Z,5.30
2022-12-11T13:44:27.698Z,5.30
2022-12-11T13:46:58.993Z,5.30
2022-12-11T13:49:31.211Z,5.30
2022-12-11T13:52:01.255Z,5.30
2022-12-11T13:54:33.931Z,5.30
2022-12-11T13:57:05.043Z,5.20
2022-12-11T13:59:35.516Z,5.30
2022-12-11T14:02:16.476Z,5.30
2022-12-11T14:04:45.160Z,5.20
2022-12-11T14:07:13.700Z,5.20
2022-12-11T14:09:45.305Z,5.20
2022-12-11T14:12:22.833Z,5.20
2022-12-11T14:14:54.682Z,5.20
2022-12-11T14:17:26.500Z,5.20
2022-12-11T14:19:56.051Z,5.20
2022-12-11T14:22:26.133Z,5.10
2022-12-11T14:24:58.248Z,5.10
2022-12-11T14:27:27.797Z,5.10
2022-12-11T14:29:56.608Z,5.10
2022-12-11T14:32:33.245Z,5.10
2022-12-11T14:35:04.866Z,5.10
2022-12-11T14:37:34.747Z,5.10
2022-12-11T14:40:08.210Z,5.10
2022-12-11T14:42:41.332Z,5.10
2022-12-11T14:45:19.973Z,5.10
2022-12-11T14:47:48.506Z,5.10
2022-12-11T14:50:22.403Z,5.00
2022-12-11T14:52:54.323Z,5.10
2022-12-11T14:55:27.178Z,5.00
2022-12-11T14:57:58.907Z,5.10
2022-12-11T15:00:32.860Z,5.00
2022-12-11T15:03:03.723Z,5.00
2022-12-11T15:05:38.858Z,5.00
2022-12-11T15:08:24.820Z,5.00
2022-12-11T15:11:08.143Z,5.00
2022-12-11T15:13:39.539Z,5.00
2022-12-11T15:16:10.231Z,5.00
2022-12-11T15:18:42.411Z,5.00
2022-12-11T15:21:13.330Z,5.00
2022-12-11T15:23:51.745Z,5.00
2022-12-11T15:26:22.517Z,5.00
2022-12-11T15:29:01.223Z,5.00
2022-12-11T15:31:31.236Z,5.00
2022-12-11T15:33:59.832Z,5.00
2022-12-11T15:36:33.232Z,4.90
2022-12-11T15:39:01.809Z,4.90
2022-12-11T15:41:33.332Z,4.90
2022-12-11T15:44:04.847Z,4.90
2022-12-11T15:46:37.080Z,4.90
2022-12-11T15:49:13.672Z,4.90
2022-12-11T15:51:43.412Z,4.80
2022-12-11T15:54:12.099Z,4.80
2022-12-11T15:56:42.003Z,4.80
2022-12-11T15:59:11.972Z,4.90
2022-12-11T16:01:40.336Z,4.80
2022-12-11T16:04:08.623Z,4.80
2022-12-11T16:06:37.506Z,4.80
2022-12-11T16:09:05.831Z,4.80
2022-12-11T16:11:34.144Z,4.80
2022-12-11T16:14:04.561Z,4.90
2022-12-11T16:16:35.502Z,4.90
2022-12-11T16:19:03.965Z,4.90
2022-12-11T16:21:32.196Z,4.90
2022-12-11T16:24:00.508Z,4.90
2022-12-11T16:26:28.805Z,5.00
2022-12-11T16:28:56.983Z,4.90
2022-12-11T16:31:26.635Z,4.90
2022-12-11T16:33:54.873Z,4.90
2022-12-11T16:36:23.551Z,4.90
2022-12-11T16:38:54.263Z,4.90
2022-12-11T16:41:23.742Z,4.70
2022-12-11T16:43:52.538Z,4.90
2022-12-11T16:46:22.048Z,4.90
2022-12-11T16:48:51.907Z,4.90
2022-12-11T16:51:20.503Z,4.90
2022-12-11T16:53:49.008Z,4.90
2022-12-11T16:56:17.641Z,4.90
2022-12-11T16:58:47.681Z,4.90
2022-12-11T17:01:16.690Z,4.90
2022-12-11T17:03:45.387Z,4.90
2022-12-11T17:06:18.252Z,4.90
2022-12-11T17:08:47.274Z,4.90
2022-12-11T17:11:17.455Z,4.90
2022-12-11T17:13:46.112Z,4.90
2022-12-11T17:16:16.894Z,4.90
2022-12-11T17:18:45.478Z,4.90
2022-12-11T17:21:17.128Z,4.90
2022-12-11T17:23:45.981Z,4.90
2022-12-11T17:26:14.747Z,4.90
2022-12-11T17:28:43.346Z,5.00
2022-12-11T17:31:14.809Z,4.90
2022-12-11T17:33:44.179Z,5.00
2022-12-11T17:36:17.429Z,4.90
2022-12-11T17:38:46.001Z,5.00
2022-12-11T17:41:20.376Z,5.00
2022-12-11T17:43:49.877Z,5.00
2022-12-11T17:46:18.893Z,5.00
2022-12-11T17:48:47.292Z,5.00
2022-12-11T17:51:22.037Z,5.00
2022-12-11T17:53:50.587Z,5.00
2022-12-11T17:56:19.322Z,5.00
2022-12-11T17:58:47.710Z,5.00
2022-12-11T18:01:16.136Z,5.10
2022-12-11T18:03:44.439Z,5.10
2022-12-11T18:06:15.066Z,5.10
2022-12-11T18:08:46.271Z,5.10
2022-12-11T18:11:17.110Z,5.10
2022-12-11T18:13:46.579Z,5.10
2022-12-11T18:16:17.984Z,5.10
2022-12-11T18:18:47.169Z,5.10
2022-12-11T18:21:17.000Z,5.10
2022-12-11T18:23:47.126Z,5.10
2022-12-11T18:26:15.832Z,5.20
2022-12-11T18:28:44.921Z,5.10
2022-12-11T18:31:14.557Z,5.20
2022-12-11T18:33:44.765Z,5.10
2022-12-11T18:36:15.105Z,5.20
2022-12-11T18:38:45.449Z,5.10
2022-12-11T18:41:16.147Z,5.10
2022-12-11T18:43:44.484Z,5.20
2022-12-11T18:46:15.107Z,5.20
2022-12-11T18:48:44.426Z,5.20
2022-12-11T18:51:15.457Z,5.20
2022-12-11T18:53:43.743Z,5.20
2022-12-11T18:56:15.475Z,5.20
2022-12-11T18:58:44.543Z,5.20
2022-12-11T19:01:17.214Z,5.20
2022-12-11T19:03:45.529Z,5.20
2022-12-11T19:06:16.015Z,5.20
2022-12-11T19:08:44.821Z,5.20
2022-12-11T19:11:17.655Z,5.20
2022-12-11T19:13:46.637Z,5.30
2022-12-11T19:16:19.699Z,5.20
2022-12-11T19:18:48.327Z,5.20
2022-12-11T19:21:19.408Z,5.20
2022-12-11T19:23:48.423Z,5.20
2022-12-11T19:26:22.755Z,5.30
2022-12-11T19:28:52.736Z,5.20
2022-12-11T19:31:24.087Z,5.30
2022-12-11T19:33:52.724Z,5.30
2022-12-11T19:36:23.801Z,5.30
2022-12-11T19:38:55.321Z,5.30
2022-12-11T19:41:28.676Z,5.30
2022-12-11T19:43:58.586Z,5.30
2022-12-11T19:46:28.036Z,5.30
2022-12-11T19:48:58.096Z,5.30
2022-12-11T19:51:29.698Z,5.30
2022-12-11T19:53:59.822Z,5.30
2022-12-11T19:56:29.789Z,5.30
2022-12-11T19:58:58.866Z,5.30
2022-12-11T20:01:31.143Z,5.30
2022-12-11T20:04:01.218Z,5.30
2022-12-11T20:06:30.738Z,5.30
2022-12-11T20:08:59.577Z,5.30
2022-12-11T20:11:29.441Z,5.30
2022-12-11T20:13:57.919Z,5.30
2022-12-11T20:16:53.335Z,5.30
2022-12-11T20:19:15.311Z,5.30
2022-12-11T20:21:44.012Z,5.30
2022-12-11T20:24:12.354Z,5.30
2022-12-11T20:26:42.080Z,5.30
2022-12-11T20:29:10.530Z,5.30
2022-12-11T20:31:39.312Z,5.30
2022-12-11T20:34:09.409Z,5.30
2022-12-11T20:36:38.010Z,5.30
2022-12-11T20:39:06.539Z,5.30
2022-12-11T20:41:34.937Z,5.30
2022-12-11T20:44:04.614Z,5.30
2022-12-11T20:46:33.019Z,5.30
2022-12-11T20:49:01.814Z,5.30
2022-12-11T20:51:32.339Z,5.30
2022-12-11T20:54:01.345Z,5.30
2022-12-11T20:56:32.191Z,5.30
2022-12-11T20:59:01.916Z,5.30
2022-12-11T21:01:33.551Z,5.30
2022-12-11T21:04:02.481Z,5.30
2022-12-11T21:06:33.929Z,5.30
2022-12-11T21:09:04.976Z,5.30
2022-12-11T21:11:33.501Z,5.30
2022-12-11T21:14:01.875Z,5.30
2022-12-11T21:16:33.011Z,5.30
2022-12-11T21:19:02.806Z,5.40
2022-12-11T21:21:33.271Z,5.30
2022-12-11T21:24:01.627Z,5.50
2022-12-11T21:26:31.385Z,5.30
2022-12-11T21:28:59.833Z,5.40
2022-12-11T21:31:29.120Z,5.30
2022-12-11T21:33:59.031Z,5.30
2022-12-11T21:36:27.440Z,5.30
2022-12-11T21:38:55.974Z,5.30
2022-12-11T21:41:26.212Z,5.30
2022-12-11T21:45:21.243Z,5.30
2022-12-11T21:46:44.950Z,5.40
2022-12-11T21:49:14.785Z,5.40
2022-12-11T21:51:47.090Z,5.30
2022-12-11T21:54:17.779Z,5.40
2022-12-11T21:56:47.077Z,5.40
2022-12-11T21:59:15.916Z,5.30
2022-12-11T22:01:47.106Z,5.30
2022-12-11T22:04:17.030Z,5.40
2022-12-11T22:06:47.291Z,5.30
2022-12-11T22:09:16.341Z,5.40
2022-12-11T22:11:46.430Z,5.40
2022-12-11T22:14:16.175Z,5.30
2022-12-11T22:16:45.260Z,5.80
2022-12-11T22:19:13.847Z,5.30
2022-12-11T22:21:43.805Z,5.40
2022-12-11T22:24:12.155Z,5.40
2022-12-11T22:26:40.812Z,5.40
2022-12-11T22:29:09.313Z,5.40
2022-12-11T22:31:37.566Z,5.40
2022-12-11T22:34:05.867Z,5.30
2022-12-11T22:36:34.069Z,5.40
2022-12-11T22:39:03.860Z,5.40
2022-12-11T22:41:33.601Z,5.40
2022-12-11T22:44:02.284Z,5.30
2022-12-11T22:46:31.940Z,5.40
2022-12-11T22:49:00.690Z,5.30
2022-12-11T22:51:28.901Z,5.40
2022-12-11T22:53:58.535Z,5.40
2022-12-11T22:56:28.415Z,5.40
2022-12-11T22:58:57.995Z,5.40
2022-12-11T23:01:27.590Z,5.40
2022-12-11T23:03:55.902Z,5.40
2022-12-11T23:06:25.936Z,5.40
2022-12-11T23:08:55.273Z,5.40
2022-12-11T23:11:25.965Z,5.40
2022-12-11T23:13:56.209Z,5.40
2022-12-11T23:16:25.934Z,5.50
2022-12-11T23:18:54.719Z,5.40
2022-12-11T23:21:23.712Z,5.40
2022-12-11T23:23:52.316Z,5.40
2022-12-11T23:26:21.397Z,5.40
2022-12-11T23:28:50.301Z,5.40
2022-12-11T23:31:20.431Z,5.40
2022-12-11T23:33:48.853Z,5.40
2022-12-11T23:36:17.338Z,5.40
2022-12-11T23:38:50.944Z,5.40
2022-12-11T23:41:22.699Z,5.40
2022-12-11T23:43:51.115Z,5.40
2022-12-11T23:46:23.099Z,5.40
2022-12-11T23:48:52.298Z,5.40
2022-12-11T23:51:22.362Z,5.40
2022-12-11T23:53:50.890Z,5.40
2022-12-11T23:56:22.395Z,5.40
2022-12-11T23:58:51.413Z,5.40
